Home > Products > Valid Products > TAF

000
FTUS43 KIWX 272300
TAFFWA
TAF
KFWA 272326Z 2800/2824 32007KT P6SM BKN250
     FM280200 01005KT P6SM BKN200
      TEMPO 2809/2812 3SM BR
     FM281400 07006KT P6SM BKN250=



000
FTUS43 KIWX 271700
TAFFWA
TAF
KFWA 271730Z 2718/2818 02005KT P6SM SCT150
     FM280200 01005KT P6SM SCT100
      TEMPO 2809/2812 3SM BR
     FM281400 07006KT P6SM BKN250=



000
FTUS43 KIWX 271100
TAFFWA
TAF
KFWA 271120Z 2712/2812 03004KT 4SM BR BKN006
      TEMPO 2712/2714 3SM BR SCT006
     FM271400 35006KT P6SM SCT030 BKN080
     FM280000 03004KT P6SM SCT100
      TEMPO 2809/2812 3SM BR=



000
FTUS43 KIWX 270500
TAFFWA
TAF
KFWA 270536Z 2706/2806 VRB03KT P6SM SCT250
      TEMPO 2708/2712 3SM BR SCT002
     FM271400 03007KT P6SM SCT040 BKN100=



000
FTUS43 KIWX 262300
TAFFWA
TAF
KFWA 262338Z 2700/2724 29005KT P6SM FEW040 BKN250
     FM270700 03003KT P6SM SCT150
      TEMPO 2709/2713 5SM BR SCT010
     FM271400 03007KT P6SM SCT040 BKN100=



000
FTUS43 KIWX 261700
TAFFWA
TAF
KFWA 261721Z 2618/2718 22004KT P6SM SCT040 BKN250
     FM262000 24007KT P6SM VCTS BKN035CB OVC250
     FM262300 33005KT P6SM BKN250=



000
FTUS43 KIWX 261100
TAFFWA
TAF
KFWA 261129Z 2612/2712 22004KT P6SM SCT040 BKN250
     FM261300 25008KT P6SM VCTS SCT035CB BKN250
     FM262100 33005KT P6SM BKN250=



000
FTUS43 KIWX 260500
TAFFWA
TAF
KFWA 260532Z 2606/2706 19005KT P6SM BKN250
     FM260800 22004KT 5SM BR BKN035
     FM261500 25009KT P6SM SCT035
     FM261800 28010KT P6SM VCTS BKN035CB
     FM270300 28005KT P6SM BKN250=



000
FTUS43 KIWX 260000 AAA
TAFFWA
TAF AMD
KFWA 260037Z 2601/2624 23007KT P6SM SCT050 BKN100
      TEMPO 2601/2602 -RA BKN050
     FM260200 19005KT P6SM SCT040 BKN250
     FM260800 22004KT 5SM BR BKN035
     FM261500 25009KT P6SM SCT035
     FM261800 28010KT P6SM VCTS BKN035CB=



000
FTUS43 KIWX 252300
TAFFWA
TAF
KFWA 252340Z 2600/2624 23008KT P6SM VCTS SCT040CB BKN250
      TEMPO 2600/2602 6SM -SHRA BR BKN040
     FM260200 19005KT P6SM SCT040 BKN250
     FM260800 22004KT 5SM BR BKN035
     FM261500 25009KT P6SM SCT035
     FM261800 28010KT P6SM VCTS BKN035CB=



000
FTUS43 KIWX 252100 AAA
TAFFWA
TAF AMD
KFWA 252125Z 2521/2618 20005KT P6SM VCTS SCT040CB BKN250
      TEMPO 2522/2524 5SM -TSRA BKN040CB
     FM260000 19005KT P6SM SCT040 BKN250
     FM260800 22004KT 5SM BR BKN035
     FM261500 25009KT P6SM SCT035=



000
FTUS43 KIWX 251700
TAFFWA
TAF
KFWA 251740Z 2518/2618 21005KT P6SM BKN035
     FM260800 22004KT 5SM BR BKN035
     FM261500 25009KT P6SM SCT035=



000
FTUS43 KIWX 251100
TAFFWA
TAF
KFWA 251135Z 2512/2612 10004KT 5SM BR SCT035
      TEMPO 2512/2513 2SM BR BKN030
     FM251400 19006KT P6SM SCT035 BKN200
     FM260800 22003KT 3SM BR BKN035=



000
FTUS43 KIWX 250500
TAFFWA
TAF
KFWA 250536Z 2506/2606 12004KT P6SM SCT035
      TEMPO 2509/2513 5SM BR BKN030
     FM251400 19006KT P6SM SCT035 BKN200=



    US Dept of Commerce
    National Oceanic and Atmospheric Administration
    National Weather Service
    1325 East West Highway
    Silver Spring, MD 20910
    Page Author: NWS Internet Services Team
Disclaimer
Information Quality
Credits
Glossary
Privacy Policy
Freedom of Information Act (FOIA)
About Us
Career Opportunities